Whitmore, California
Current Conditions -  °F | °C
As of 7:53 AM on Saturday 20 Dec 2014 (Local Time) from KRDD Reporting Station
Haze Haze  
Wind Chill: 52°   Ceiling: 400
Heat Index: 52°   Visibility: 2.5mi
Dew Point: 51°   Wind: 13mph
Humidity: 97%   Direction: 190°S
Pressure: 30.12"   Gusts: NA
Location:  40.63°N, 121.92°W
Report Text: KRDD 201553Z 19011KT 2 1/2SM BR OVC004 11/11 A3012 RMK AO2 RAE49 SLP200 P0001 T01110106
Loading
Personal Weather Stations






























Interactive Weather Map New forecast layout! Learn more

10-Day Weather Forecast

Advertisements
Track Severe Weather on mobile